Time;durP1;ratioP1;P1;durP2;ratioP2;P2;SDS_P1;SDS_P2;PMS_P1;PMS_P2;Temp;Humidity;BMP_temperature;BMP_pressure;BME280_temperature;BME280_humidity;BME280_pressure;Samples;Min_cycle;Max_cycle;Signal;HPM_P1;HPM_P2
2023/09/30 00:02:11;;;;;;;396.00;76.80;;;;;;;;;;5035801;28;20607;-54
2023/09/30 00:04:36;;;;;;;337.25;74.32;;;;;;;;;;5036463;28;20021;-54
2023/09/30 00:07:01;;;;;;;283.17;73.60;;;;;;;;;;5037482;28;20045;-54
2023/09/30 00:09:26;;;;;;;312.13;74.67;;;;;;;;;;5037648;28;21808;-55
2023/09/30 00:11:52;;;;;;;369.63;77.03;;;;;;;;;;5037756;28;20282;-53
2023/09/30 00:14:17;;;;;;;442.80;78.47;;;;;;;;;;5036279;28;20393;-54
2023/09/30 00:16:42;;;;;;;341.70;76.10;;;;;;;;;;5036711;28;20601;-56
2023/09/30 00:19:08;;;;;;;368.67;76.95;;;;;;;;;;5038432;28;20016;-55
2023/09/30 00:21:33;;;;;;;304.80;74.82;;;;;;;;;;5034148;28;20037;-56
2023/09/30 00:23:58;;;;;;;319.40;75.53;;;;;;;;;;5037026;28;20017;-53
2023/09/30 00:26:23;;;;;;;372.33;77.13;;;;;;;;;;5037357;28;20271;-55
2023/09/30 00:28:49;;;;;;;331.98;76.85;;;;;;;;;;5038482;28;20275;-55
2023/09/30 00:31:14;;;;;;;451.98;81.57;;;;;;;;;;5035701;28;20329;-55
2023/09/30 00:33:39;;;;;;;383.85;78.35;;;;;;;;;;5036650;28;20021;-55
2023/09/30 00:36:08;;;;;;;337.20;75.28;;;;;;;;;;5036475;28;20033;-54
2023/09/30 00:38:34;;;;;;;325.02;75.07;;;;;;;;;;5018424;28;20491;-55
2023/09/30 00:40:59;;;;;;;321.38;76.53;;;;;;;;;;5038006;28;20517;-56
2023/09/30 00:43:25;;;;;;;359.60;77.70;;;;;;;;;;5036160;28;20033;-54
2023/09/30 00:46:00;;;;;;;346.70;76.13;;;;;;;;;;5020342;28;20037;-55
2023/09/30 00:48:26;;;;;;;439.40;81.00;;;;;;;;;;5035020;28;20254;-54
2023/09/30 00:50:51;;;;;;;369.35;75.82;;;;;;;;;;5035391;28;20396;-54
2023/09/30 00:53:17;;;;;;;479.33;80.57;;;;;;;;;;5035710;28;20025;-55
2023/09/30 00:55:42;;;;;;;331.15;74.72;;;;;;;;;;5037084;28;20352;-55
2023/09/30 00:58:07;;;;;;;314.08;74.05;;;;;;;;;;5037186;28;20105;-54
2023/09/30 01:00:33;;;;;;;304.67;74.97;;;;;;;;;;5035787;28;20029;-54
2023/09/30 01:03:03;;;;;;;314.27;73.35;;;;;;;;;;5036459;28;20641;-56
2023/09/30 01:05:29;;;;;;;389.25;77.10;;;;;;;;;;5034819;28;20499;-55
2023/09/30 01:07:54;;;;;;;283.50;73.97;;;;;;;;;;5037940;28;20048;-54
2023/09/30 01:10:20;;;;;;;356.77;78.10;;;;;;;;;;5036005;28;20108;-54
2023/09/30 01:12:46;;;;;;;364.45;77.68;;;;;;;;;;5036693;28;20059;-54
2023/09/30 01:15:12;;;;;;;287.90;74.70;;;;;;;;;;5039053;28;20016;-53
2023/09/30 01:17:37;;;;;;;312.85;77.60;;;;;;;;;;5023333;28;20116;-54
2023/09/30 01:20:11;;;;;;;381.15;80.20;;;;;;;;;;5041934;28;20552;-54
2023/09/30 01:22:36;;;;;;;318.27;77.60;;;;;;;;;;5039700;28;20107;-54
2023/09/30 01:25:01;;;;;;;368.52;79.30;;;;;;;;;;5043019;28;20584;-55
2023/09/30 01:27:26;;;;;;;431.45;81.60;;;;;;;;;;5041223;28;20025;-55
2023/09/30 01:29:52;;;;;;;351.47;78.50;;;;;;;;;;5041618;28;20553;-55
2023/09/30 01:32:17;;;;;;;433.43;82.03;;;;;;;;;;5039285;28;21509;-55
2023/09/30 01:34:42;;;;;;;375.43;78.07;;;;;;;;;;5040569;28;20311;-53
2023/09/30 01:37:07;;;;;;;333.92;77.78;;;;;;;;;;5039595;28;20272;-56
2023/09/30 01:39:33;;;;;;;296.65;76.47;;;;;;;;;;5039982;28;20445;-55
2023/09/30 01:41:59;;;;;;;327.75;77.10;;;;;;;;;;5040396;28;20132;-53
2023/09/30 01:44:25;;;;;;;400.73;80.07;;;;;;;;;;5040274;28;20021;-54
2023/09/30 01:46:51;;;;;;;300.73;76.63;;;;;;;;;;5039948;28;20623;-55
2023/09/30 01:49:18;;;;;;;373.02;79.15;;;;;;;;;;5039479;28;20021;-53
2023/09/30 01:51:43;;;;;;;372.52;78.40;;;;;;;;;;5039552;28;20724;-53
2023/09/30 01:54:08;;;;;;;347.42;77.82;;;;;;;;;;5041041;28;20017;-54
2023/09/30 01:56:33;;;;;;;327.15;77.53;;;;;;;;;;5037584;28;20819;-55
2023/09/30 01:58:59;;;;;;;334.42;77.35;;;;;;;;;;5040357;28;20626;-54
2023/09/30 02:01:24;;;;;;;456.40;82.90;;;;;;;;;;5038457;28;20040;-54
2023/09/30 02:03:49;;;;;;;311.63;77.27;;;;;;;;;;5040646;28;20029;-56
2023/09/30 02:06:15;;;;;;;324.77;77.73;;;;;;;;;;5038411;28;20461;-53
2023/09/30 02:08:40;;;;;;;336.03;77.80;;;;;;;;;;5041133;28;20314;-54
2023/09/30 02:11:05;;;;;;;305.80;76.00;;;;;;;;;;5040397;28;20264;-55
2023/09/30 02:13:35;;;;;;;509.93;73.27;;;;;;;;;;5037636;28;20029;-54
2023/09/30 02:16:00;;;;;;;309.83;65.68;;;;;;;;;;5038506;28;20842;-55
2023/09/30 02:18:25;;;;;;;377.55;69.82;;;;;;;;;;5038650;28;20017;-54
2023/09/30 02:20:51;;;;;;;356.25;70.05;;;;;;;;;;5039580;28;20037;-55
2023/09/30 02:23:17;;;;;;;302.87;69.93;;;;;;;;;;5039101;28;20025;-53
2023/09/30 02:25:43;;;;;;;325.00;70.50;;;;;;;;;;5039508;28;20290;-55
2023/09/30 02:28:08;;;;;;;320.15;72.28;;;;;;;;;;5039241;28;20024;-56
2023/09/30 02:30:34;;;;;;;422.02;77.85;;;;;;;;;;5038287;28;20037;-54
2023/09/30 02:32:59;;;;;;;355.00;72.90;;;;;;;;;;5038776;28;20443;-53
2023/09/30 02:35:26;;;;;;;435.73;79.45;;;;;;;;;;5018981;28;20271;-55
2023/09/30 02:37:51;;;;;;;304.10;73.85;;;;;;;;;;5039326;28;20021;-54
2023/09/30 02:40:17;;;;;;;307.35;75.22;;;;;;;;;;5038667;28;20090;-53
2023/09/30 02:42:42;;;;;;;324.10;75.72;;;;;;;;;;5039772;28;20052;-53
2023/09/30 02:45:08;;;;;;;325.58;76.05;;;;;;;;;;5040214;28;20448;-53
2023/09/30 02:47:33;;;;;;;352.65;77.43;;;;;;;;;;5037894;28;20052;-54
2023/09/30 02:49:59;;;;;;;337.13;76.43;;;;;;;;;;5038095;28;20021;-54
2023/09/30 02:52:25;;;;;;;428.55;81.90;;;;;;;;;;5037174;28;20040;-54
2023/09/30 02:54:50;;;;;;;340.08;75.72;;;;;;;;;;5039007;28;20052;-54
2023/09/30 02:57:16;;;;;;;337.00;75.88;;;;;;;;;;5038399;28;20479;-54
2023/09/30 02:59:41;;;;;;;318.23;75.77;;;;;;;;;;5038582;28;20021;-54
2023/09/30 03:02:07;;;;;;;311.33;76.63;;;;;;;;;;5039510;28;20366;-55
2023/09/30 03:04:32;;;;;;;453.10;82.03;;;;;;;;;;5039088;28;20071;-55
2023/09/30 03:06:58;;;;;;;327.13;76.57;;;;;;;;;;5038641;28;20068;-55
2023/09/30 03:09:23;;;;;;;424.92;82.68;;;;;;;;;;5038305;28;20013;-54
2023/09/30 03:11:49;;;;;;;407.08;80.28;;;;;;;;;;5038238;28;20056;-55
2023/09/30 03:14:14;;;;;;;313.75;77.88;;;;;;;;;;5038462;28;20244;-56
2023/09/30 03:16:41;;;;;;;296.10;76.80;;;;;;;;;;5035154;28;20037;-54
2023/09/30 03:19:08;;;;;;;345.33;78.35;;;;;;;;;;5038751;28;20293;-54
2023/09/30 03:21:37;;;;;;;415.40;82.10;;;;;;;;;;5036816;28;20158;-55
2023/09/30 03:24:07;;;;;;;336.33;78.80;;;;;;;;;;5037839;28;20023;-53
2023/09/30 03:26:33;;;;;;;507.10;86.10;;;;;;;;;;5036180;28;20106;-55
2023/09/30 03:28:58;;;;;;;319.52;78.43;;;;;;;;;;5038721;28;20443;-55
2023/09/30 03:31:25;;;;;;;395.50;82.43;;;;;;;;;;5036892;28;20149;-53
2023/09/30 03:33:53;;;;;;;368.55;80.60;;;;;;;;;;5037859;28;20024;-54
2023/09/30 03:36:19;;;;;;;340.52;80.82;;;;;;;;;;5037367;28;20029;-54
2023/09/30 03:38:44;;;;;;;377.50;80.00;;;;;;;;;;5037086;28;20019;-54
2023/09/30 03:41:13;;;;;;;384.30;80.93;;;;;;;;;;5039198;28;20037;-57
2023/09/30 03:43:40;;;;;;;476.40;85.95;;;;;;;;;;5037259;28;20020;-54
2023/09/30 03:46:06;;;;;;;418.83;79.65;;;;;;;;;;5038031;28;20033;-55
2023/09/30 03:48:31;;;;;;;489.52;85.97;;;;;;;;;;5037784;28;20099;-56
2023/09/30 03:50:56;;;;;;;364.23;80.03;;;;;;;;;;5037737;28;20037;-56
2023/09/30 03:53:26;;;;;;;366.23;80.17;;;;;;;;;;5035779;28;20274;-54
2023/09/30 03:55:51;;;;;;;354.17;80.18;;;;;;;;;;5037091;28;20270;-53
2023/09/30 03:58:18;;;;;;;333.87;80.40;;;;;;;;;;5038195;28;20020;-55
2023/09/30 04:00:43;;;;;;;411.33;81.88;;;;;;;;;;5037050;28;20263;-55
2023/09/30 04:03:08;;;;;;;396.17;80.90;;;;;;;;;;5037669;28;20329;-55
2023/09/30 04:05:36;;;;;;;405.53;84.13;;;;;;;;;;5037481;28;20750;-55
2023/09/30 04:08:01;;;;;;;437.65;83.78;;;;;;;;;;5037890;28;20269;-53
2023/09/30 04:10:27;;;;;;;481.05;87.35;;;;;;;;;;5036180;28;20041;-55
2023/09/30 04:12:52;;;;;;;346.63;80.10;;;;;;;;;;5037119;28;20031;-53
2023/09/30 04:15:18;;;;;;;377.87;83.13;;;;;;;;;;5037117;28;20020;-56
2023/09/30 04:17:43;;;;;;;313.30;81.53;;;;;;;;;;5035753;28;20287;-56
2023/09/30 04:20:16;;;;;;;311.00;80.93;;;;;;;;;;5038395;28;20118;-55
2023/09/30 04:22:46;;;;;;;487.55;87.95;;;;;;;;;;5037645;28;20104;-53
2023/09/30 04:25:12;;;;;;;351.10;82.88;;;;;;;;;;5037290;28;20025;-54
2023/09/30 04:27:37;;;;;;;473.42;88.32;;;;;;;;;;5036519;28;20009;-54
2023/09/30 04:30:08;;;;;;;415.67;84.43;;;;;;;;;;5036522;28;20032;-54
2023/09/30 04:32:35;;;;;;;488.98;90.05;;;;;;;;;;5035569;28;20056;-55
2023/09/30 04:35:00;;;;;;;381.98;85.10;;;;;;;;;;5036340;28;20166;-54
2023/09/30 04:37:25;;;;;;;359.92;83.38;;;;;;;;;;5034896;28;20057;-53
2023/09/30 04:39:50;;;;;;;356.20;76.60;;;;;;;;;;5038257;28;20032;-56
2023/09/30 04:42:17;;;;;;;290.48;76.07;;;;;;;;;;5038251;28;20271;-55
2023/09/30 04:44:43;;;;;;;495.90;86.28;;;;;;;;;;5035182;28;20021;-54
2023/09/30 04:47:08;;;;;;;265.10;76.45;;;;;;;;;;5037739;28;20033;-53
2023/09/30 04:49:34;;;;;;;461.07;85.60;;;;;;;;;;5037088;28;20024;-55
2023/09/30 04:51:59;;;;;;;325.20;79.32;;;;;;;;;;5018601;28;20458;-54
2023/09/30 04:54:25;;;;;;;350.23;80.40;;;;;;;;;;5036991;28;20061;-54
2023/09/30 04:56:51;;;;;;;368.10;81.88;;;;;;;;;;5036678;28;20279;-54
2023/09/30 04:59:16;;;;;;;341.48;81.60;;;;;;;;;;5038967;28;20071;-55
2023/09/30 05:01:42;;;;;;;479.40;89.13;;;;;;;;;;5036090;28;20068;-53
2023/09/30 05:04:07;;;;;;;328.48;82.32;;;;;;;;;;5035822;28;20118;-54
2023/09/30 05:06:32;;;;;;;427.98;86.60;;;;;;;;;;5033859;28;20033;-54
2023/09/30 05:08:58;;;;;;;338.45;83.15;;;;;;;;;;5019595;28;20044;-55
2023/09/30 05:11:24;;;;;;;365.27;83.78;;;;;;;;;;5037570;28;20567;-55
2023/09/30 05:13:49;;;;;;;400.05;84.88;;;;;;;;;;5035183;28;20029;-56
2023/09/30 05:16:15;;;;;;;288.88;81.25;;;;;;;;;;5037833;28;20309;-56
2023/09/30 05:18:41;;;;;;;473.63;90.78;;;;;;;;;;5036540;28;20036;-54
2023/09/30 05:21:06;;;;;;;363.00;86.25;;;;;;;;;;5037446;28;20034;-55
2023/09/30 05:23:32;;;;;;;451.92;89.32;;;;;;;;;;5036494;28;20185;-55
2023/09/30 05:25:57;;;;;;;396.35;86.25;;;;;;;;;;5035378;28;20330;-55
2023/09/30 05:28:22;;;;;;;396.33;88.03;;;;;;;;;;5036157;28;20481;-54
2023/09/30 05:30:48;;;;;;;301.73;86.17;;;;;;;;;;5034558;28;20040;-53
2023/09/30 05:33:14;;;;;;;362.60;86.97;;;;;;;;;;5036062;28;20271;-55
2023/09/30 05:35:42;;;;;;;534.67;95.28;;;;;;;;;;5034443;28;20390;-54
2023/09/30 05:38:08;;;;;;;363.20;87.43;;;;;;;;;;5036234;28;20108;-56
2023/09/30 05:40:33;;;;;;;497.77;92.93;;;;;;;;;;5034595;28;20258;-55
2023/09/30 05:42:59;;;;;;;415.23;88.18;;;;;;;;;;5035370;28;20086;-56
2023/09/30 05:45:26;;;;;;;325.25;87.55;;;;;;;;;;5034164;28;20068;-56
2023/09/30 05:47:56;;;;;;;288.52;84.90;;;;;;;;;;5033970;28;20036;-55
2023/09/30 05:50:26;;;;;;;343.02;86.63;;;;;;;;;;5033209;28;20334;-56
2023/09/30 05:52:53;;;;;;;389.60;88.32;;;;;;;;;;5035069;28;20103;-55
2023/09/30 05:55:20;;;;;;;414.52;90.55;;;;;;;;;;5036236;28;20528;-54
2023/09/30 05:57:45;;;;;;;414.80;90.75;;;;;;;;;;5035098;28;20025;-56
2023/09/30 06:00:14;;;;;;;379.52;88.38;;;;;;;;;;5038500;28;20036;-54
2023/09/30 06:02:40;;;;;;;535.92;95.13;;;;;;;;;;5038542;28;20060;-53
2023/09/30 06:05:05;;;;;;;386.02;88.90;;;;;;;;;;5039803;28;20398;-55
2023/09/30 06:07:30;;;;;;;362.30;89.43;;;;;;;;;;5037587;28;20036;-56
2023/09/30 06:09:56;;;;;;;444.83;90.68;;;;;;;;;;5039022;28;20114;-54
2023/09/30 06:12:21;;;;;;;341.10;87.93;;;;;;;;;;5039040;28;20622;-56
2023/09/30 06:14:46;;;;;;;448.88;92.05;;;;;;;;;;5036966;28;20029;-54
2023/09/30 06:17:11;;;;;;;340.80;86.70;;;;;;;;;;5040995;28;20124;-55
2023/09/30 06:19:37;;;;;;;444.27;94.05;;;;;;;;;;5041045;28;20025;-55
2023/09/30 06:22:03;;;;;;;349.02;89.13;;;;;;;;;;5041978;28;20067;-56
2023/09/30 06:24:28;;;;;;;309.08;87.38;;;;;;;;;;5025352;28;20438;-54
2023/09/30 06:26:53;;;;;;;425.75;91.38;;;;;;;;;;5038359;28;20029;-55
2023/09/30 06:29:19;;;;;;;314.05;87.45;;;;;;;;;;5038989;28;20074;-56
2023/09/30 06:31:45;;;;;;;493.52;96.35;;;;;;;;;;5038276;28;20033;-54
2023/09/30 06:34:11;;;;;;;355.45;88.45;;;;;;;;;;5040840;28;20143;-54
2023/09/30 06:36:37;;;;;;;489.05;96.20;;;;;;;;;;5039444;28;20387;-54
2023/09/30 06:39:05;;;;;;;358.48;89.30;;;;;;;;;;5038788;28;20170;-56
2023/09/30 06:41:30;;;;;;;328.70;88.35;;;;;;;;;;5041281;28;20071;-55
2023/09/30 06:43:56;;;;;;;413.45;90.13;;;;;;;;;;5039437;28;20525;-55
2023/09/30 06:46:23;;;;;;;345.63;89.20;;;;;;;;;;5039523;28;20082;-54
2023/09/30 06:48:52;;;;;;;465.17;96.63;;;;;;;;;;5038821;28;20039;-55
2023/09/30 06:51:17;;;;;;;336.50;89.53;;;;;;;;;;5040338;28;20041;-55
2023/09/30 06:53:42;;;;;;;479.23;96.15;;;;;;;;;;5037465;28;20407;-55
2023/09/30 06:56:08;;;;;;;365.48;89.30;;;;;;;;;;5037451;28;20040;-55
2023/09/30 06:58:33;;;;;;;368.52;89.90;;;;;;;;;;5040127;28;20025;-55
2023/09/30 07:00:58;;;;;;;338.60;89.33;;;;;;;;;;5040044;28;20044;-56
2023/09/30 07:03:24;;;;;;;371.20;90.55;;;;;;;;;;5040736;28;20279;-57
2023/09/30 07:05:50;;;;;;;544.78;97.35;;;;;;;;;;5036998;28;20036;-54
2023/09/30 07:08:18;;;;;;;370.95;88.88;;;;;;;;;;5039998;28;20525;-53
2023/09/30 07:10:43;;;;;;;488.98;94.97;;;;;;;;;;5037494;28;20067;-54
2023/09/30 07:13:09;;;;;;;359.60;88.65;;;;;;;;;;5039433;28;20055;-55
2023/09/30 07:15:34;;;;;;;378.20;89.30;;;;;;;;;;5040248;28;20029;-55
2023/09/30 07:17:59;;;;;;;353.08;87.88;;;;;;;;;;5041686;28;20017;-56
2023/09/30 07:20:25;;;;;;;308.30;86.68;;;;;;;;;;5041859;28;20036;-56
2023/09/30 07:22:50;;;;;;;423.88;89.72;;;;;;;;;;5040126;28;20025;-56
2023/09/30 07:25:17;;;;;;;312.15;86.78;;;;;;;;;;5038999;28;20554;-54
2023/09/30 07:27:45;;;;;;;477.65;93.97;;;;;;;;;;5037763;28;20479;-55
2023/09/30 07:30:12;;;;;;;350.60;87.20;;;;;;;;;;5038861;28;20049;-54
2023/09/30 07:32:37;;;;;;;389.75;88.40;;;;;;;;;;5039619;28;20125;-54
2023/09/30 07:35:03;;;;;;;385.85;87.82;;;;;;;;;;5039352;28;20109;-55
2023/09/30 07:37:28;;;;;;;336.25;86.22;;;;;;;;;;5040256;28;20040;-55
2023/09/30 07:39:53;;;;;;;356.65;85.38;;;;;;;;;;5038243;28;20140;-56
2023/09/30 07:42:19;;;;;;;301.60;84.90;;;;;;;;;;5037605;28;20037;-56
2023/09/30 07:44:44;;;;;;;513.63;93.72;;;;;;;;;;5037032;28;20027;-55
2023/09/30 07:47:09;;;;;;;332.48;85.50;;;;;;;;;;5036700;28;20029;-56
2023/09/30 07:49:35;;;;;;;347.13;86.40;;;;;;;;;;5036614;28;20013;-53
2023/09/30 07:52:00;;;;;;;334.30;85.85;;;;;;;;;;5038632;28;20033;-55
2023/09/30 07:54:26;;;;;;;322.00;86.35;;;;;;;;;;5038657;28;20108;-56
2023/09/30 07:56:51;;;;;;;537.90;95.22;;;;;;;;;;5037060;28;20041;-55
2023/09/30 07:59:17;;;;;;;347.67;86.97;;;;;;;;;;5038506;28;20032;-55
2023/09/30 08:01:43;;;;;;;514.15;93.25;;;;;;;;;;5035752;28;20037;-55
2023/09/30 08:04:08;;;;;;;399.80;86.88;;;;;;;;;;5037685;28;20024;-54
2023/09/30 08:06:33;;;;;;;348.07;86.33;;;;;;;;;;5038127;28;20037;-55
2023/09/30 08:08:58;;;;;;;312.67;84.10;;;;;;;;;;5037648;28;20306;-56
2023/09/30 08:11:27;;;;;;;264.70;73.10;;;;;;;;;;5038843;28;20031;-56
2023/09/30 08:13:53;;;;;;;508.48;86.65;;;;;;;;;;5037669;28;20329;-56
2023/09/30 08:16:19;;;;;;;307.30;78.28;;;;;;;;;;5039398;28;20451;-56
2023/09/30 08:18:44;;;;;;;393.60;81.80;;;;;;;;;;5038527;28;20039;-55
2023/09/30 08:21:11;;;;;;;323.23;80.70;;;;;;;;;;5021048;28;20032;-57
2023/09/30 08:23:36;;;;;;;314.45;79.93;;;;;;;;;;5040676;28;20356;-56
2023/09/30 08:26:01;;;;;;;371.83;82.47;;;;;;;;;;5037455;28;20103;-55
2023/09/30 08:28:26;;;;;;;298.83;80.47;;;;;;;;;;5039052;28;20298;-56
2023/09/30 08:30:57;;;;;;;493.73;89.97;;;;;;;;;;5036448;28;20029;-57
2023/09/30 08:33:22;;;;;;;325.10;80.57;;;;;;;;;;5039229;28;20267;-55
2023/09/30 08:35:47;;;;;;;386.43;81.63;;;;;;;;;;5038193;28;20041;-56
2023/09/30 08:38:13;;;;;;;314.77;78.63;;;;;;;;;;5040531;28;20266;-56
2023/09/30 08:40:38;;;;;;;336.27;78.78;;;;;;;;;;5036837;28;20314;-54
2023/09/30 08:43:04;;;;;;;337.95;78.38;;;;;;;;;;5038255;28;20051;-56
2023/09/30 08:45:33;;;;;;;265.25;75.15;;;;;;;;;;5038749;28;20067;-55
2023/09/30 08:48:04;;;;;;;354.00;76.25;;;;;;;;;;5035934;28;21280;-54
2023/09/30 08:50:29;;;;;;;292.38;75.40;;;;;;;;;;5038517;28;20033;-56
2023/09/30 08:52:55;;;;;;;428.95;79.55;;;;;;;;;;5037580;28;20128;-55
2023/09/30 08:55:20;;;;;;;323.63;80.25;;;;;;;;;;5037772;28;20025;-56
2023/09/30 08:57:46;;;;;;;422.83;82.50;;;;;;;;;;5037075;28;20489;-54
2023/09/30 09:00:12;;;;;;;307.63;77.15;;;;;;;;;;5038576;28;20017;-55
2023/09/30 09:02:38;;;;;;;332.20;76.93;;;;;;;;;;5038369;28;20028;-55
2023/09/30 09:05:03;;;;;;;297.48;76.47;;;;;;;;;;5035430;28;20021;-54
2023/09/30 09:07:30;;;;;;;280.25;75.43;;;;;;;;;;5038074;28;20037;-56
2023/09/30 09:10:12;;;;;;;452.52;81.60;;;;;;;;;;5035912;28;20457;-56
2023/09/30 09:12:41;;;;;;;275.60;76.10;;;;;;;;;;5037987;28;20048;-55
2023/09/30 09:15:07;;;;;;;376.75;78.40;;;;;;;;;;5038568;28;20029;-55
2023/09/30 09:17:42;;;;;;;297.80;76.15;;;;;;;;;;5038116;28;20052;-56
2023/09/30 09:20:10;;;;;;;299.70;75.93;;;;;;;;;;5037857;28;20062;-56
2023/09/30 09:22:42;;;;;;;304.35;75.22;;;;;;;;;;5037634;28;20493;-54
2023/09/30 09:25:08;;;;;;;329.13;74.57;;;;;;;;;;5034886;28;20139;-56
2023/09/30 09:27:35;;;;;;;330.30;74.32;;;;;;;;;;5036528;28;20076;-55
2023/09/30 09:30:15;;;;;;;347.67;74.43;;;;;;;;;;5036153;28;20067;-55
2023/09/30 09:33:10;;;;;;;337.70;73.93;;;;;;;;;;5036912;28;20040;-54
2023/09/30 09:35:36;;;;;;;284.30;72.93;;;;;;;;;;5023265;28;20703;-57
2023/09/30 09:38:01;;;;;;;322.48;73.53;;;;;;;;;;5041224;28;20032;-57
2023/09/30 09:40:27;;;;;;;286.42;70.85;;;;;;;;;;5041791;28;20041;-57
2023/09/30 09:42:54;;;;;;;349.75;73.30;;;;;;;;;;5041335;28;20029;-55
2023/09/30 09:45:24;;;;;;;306.88;71.15;;;;;;;;;;5040911;28;20390;-55
2023/09/30 09:47:51;;;;;;;390.67;74.22;;;;;;;;;;5040140;28;20052;-56
2023/09/30 09:50:18;;;;;;;279.02;70.28;;;;;;;;;;5041724;28;20017;-56
2023/09/30 09:52:44;;;;;;;302.65;69.13;;;;;;;;;;5042304;28;20029;-56
2023/09/30 09:55:10;;;;;;;246.85;69.78;;;;;;;;;;5040944;28;20016;-55
2023/09/30 09:57:35;;;;;;;218.93;66.43;;;;;;;;;;5041963;28;20367;-56
2023/09/30 10:00:05;;;;;;;445.30;70.70;;;;;;;;;;5039379;28;20060;-55
2023/09/30 10:02:30;;;;;;;237.48;63.50;;;;;;;;;;5041759;28;20041;-56
2023/09/30 10:04:56;;;;;;;451.27;75.28;;;;;;;;;;5040127;28;20504;-56
2023/09/30 10:07:22;;;;;;;302.55;66.57;;;;;;;;;;5038994;28;20088;-55
2023/09/30 10:09:49;;;;;;;361.80;68.55;;;;;;;;;;5039110;28;20055;-56
2023/09/30 10:12:15;;;;;;;229.63;62.53;;;;;;;;;;5042080;28;20114;-56
2023/09/30 10:14:40;;;;;;;286.33;67.63;;;;;;;;;;5038706;28;20052;-55
2023/09/30 10:17:06;;;;;;;293.67;64.50;;;;;;;;;;5040042;28;20047;-56
2023/09/30 10:19:32;;;;;;;247.40;63.85;;;;;;;;;;5041526;28;20017;-57
2023/09/30 10:22:16;;;;;;;546.78;75.63;;;;;;;;;;5037061;28;20079;-57
2023/09/30 10:24:41;;;;;;;263.98;65.07;;;;;;;;;;5038911;28;20032;-55
2023/09/30 10:27:22;;;;;;;330.77;66.40;;;;;;;;;;5038418;28;20025;-58
2023/09/30 10:29:47;;;;;;;293.00;66.72;;;;;;;;;;5039881;28;20032;-55
2023/09/30 10:32:14;;;;;;;274.73;66.38;;;;;;;;;;5040830;28;20119;-56
2023/09/30 10:34:47;;;;;;;261.55;65.53;;;;;;;;;;5042392;28;20108;-56
2023/09/30 10:37:22;;;;;;;372.33;69.13;;;;;;;;;;5037706;28;20194;-57
2023/09/30 10:40:02;;;;;;;387.70;70.78;;;;;;;;;;5037548;28;20487;-57
2023/09/30 10:42:47;;;;;;;306.85;70.30;;;;;;;;;;5037512;28;20528;-59
2023/09/30 10:45:31;;;;;;;368.65;75.28;;;;;;;;;;5038480;28;20453;-55
2023/09/30 10:47:56;;;;;;;402.45;73.18;;;;;;;;;;5037521;28;20016;-55
2023/09/30 10:50:44;;;;;;;308.27;70.37;;;;;;;;;;5039331;28;20044;-56
2023/09/30 10:53:10;;;;;;;349.23;73.75;;;;;;;;;;5037638;28;20783;-56
2023/09/30 10:55:35;;;;;;;334.02;72.13;;;;;;;;;;5036465;28;20044;-56
2023/09/30 10:58:01;;;;;;;364.88;72.85;;;;;;;;;;5037296;28;20017;-55
2023/09/30 11:00:26;;;;;;;287.70;69.30;;;;;;;;;;5038931;28;20055;-55
2023/09/30 11:02:53;;;;;;;501.50;80.20;;;;;;;;;;5036474;28;20319;-56
2023/09/30 11:05:20;;;;;;;335.63;72.95;;;;;;;;;;5037601;28;20067;-55
2023/09/30 11:07:48;;;;;;;350.23;73.47;;;;;;;;;;5038257;28;20402;-55
2023/09/30 11:10:15;;;;;;;369.10;74.68;;;;;;;;;;5038759;28;20092;-57
2023/09/30 11:12:53;;;;;;;380.10;74.40;;;;;;;;;;5039580;28;20013;-57
2023/09/30 11:15:18;;;;;;;333.83;73.07;;;;;;;;;;5038389;28;20398;-54
2023/09/30 11:17:43;;;;;;;315.63;73.25;;;;;;;;;;5036823;28;20464;-56
2023/09/30 11:20:09;;;;;;;280.37;70.97;;;;;;;;;;5035191;28;20017;-56
2023/09/30 11:22:35;;;;;;;316.08;73.00;;;;;;;;;;5038412;28;20764;-55
2023/09/30 11:25:00;;;;;;;457.30;79.40;;;;;;;;;;5036596;28;20016;-56
2023/09/30 11:27:26;;;;;;;283.98;71.07;;;;;;;;;;5037941;28;20029;-53
2023/09/30 11:29:51;;;;;;;431.02;77.85;;;;;;;;;;5036293;28;20094;-55
2023/09/30 11:32:26;;;;;;;341.73;74.35;;;;;;;;;;5038404;28;20037;-55
2023/09/30 11:34:52;;;;;;;377.45;76.07;;;;;;;;;;5038460;28;20036;-56
2023/09/30 11:37:18;;;;;;;348.75;74.47;;;;;;;;;;5038790;28;20029;-56
2023/09/30 11:39:43;;;;;;;352.77;74.43;;;;;;;;;;5039497;28;20430;-57
2023/09/30 11:42:17;;;;;;;337.13;73.95;;;;;;;;;;5039165;28;20389;-57
2023/09/30 11:44:47;;;;;;;330.17;73.43;;;;;;;;;;5039714;28;20031;-55
2023/09/30 11:47:12;;;;;;;317.30;73.95;;;;;;;;;;5038281;28;20040;-57
2023/09/30 11:49:38;;;;;;;331.50;73.78;;;;;;;;;;5040276;28;20012;-55
2023/09/30 11:52:06;;;;;;;439.52;78.65;;;;;;;;;;5038330;28;20102;-57
2023/09/30 11:54:40;;;;;;;280.42;72.25;;;;;;;;;;5040254;28;20025;-57
2023/09/30 11:57:06;;;;;;;425.50;77.57;;;;;;;;;;5037524;28;20189;-55
2023/09/30 11:59:31;;;;;;;281.60;72.90;;;;;;;;;;5021956;28;20071;-56
2023/09/30 12:01:56;;;;;;;369.92;75.38;;;;;;;;;;5038782;28;20098;-54
2023/09/30 12:04:22;;;;;;;313.20;75.57;;;;;;;;;;5038329;28;20063;-57
2023/09/30 12:06:50;;;;;;;330.50;75.40;;;;;;;;;;5038397;28;20397;-56
2023/09/30 12:09:17;;;;;;;289.38;74.07;;;;;;;;;;5039169;28;20268;-57
2023/09/30 12:11:45;;;;;;;274.70;73.93;;;;;;;;;;5039243;28;20064;-57
2023/09/30 12:14:11;;;;;;;307.92;73.65;;;;;;;;;;5038747;28;20395;-56
2023/09/30 12:16:37;;;;;;;340.77;73.82;;;;;;;;;;5039032;28;20036;-54
2023/09/30 12:19:02;;;;;;;470.17;77.88;;;;;;;;;;5038569;28;20027;-53
2023/09/30 12:21:28;;;;;;;366.47;74.90;;;;;;;;;;5038609;28;20448;-54
2023/09/30 12:23:53;;;;;;;428.17;77.00;;;;;;;;;;5037119;28;20769;-54
2023/09/30 12:26:19;;;;;;;341.27;73.10;;;;;;;;;;5019367;28;20090;-56
2023/09/30 12:28:45;;;;;;;345.20;74.15;;;;;;;;;;5038662;28;20013;-57
2023/09/30 12:31:11;;;;;;;306.95;73.35;;;;;;;;;;5037874;28;20025;-56
2023/09/30 12:33:36;;;;;;;398.30;76.60;;;;;;;;;;5038603;28;20754;-55
2023/09/30 12:36:02;;;;;;;477.27;79.68;;;;;;;;;;5036624;28;20043;-57
2023/09/30 12:38:28;;;;;;;340.10;75.93;;;;;;;;;;5038137;28;20021;-58
2023/09/30 12:40:54;;;;;;;369.35;75.72;;;;;;;;;;5036610;28;20041;-57
2023/09/30 12:43:19;;;;;;;391.70;76.88;;;;;;;;;;5038563;28;20090;-57
2023/09/30 12:45:45;;;;;;;329.42;74.43;;;;;;;;;;5037829;28;20357;-55
2023/09/30 12:48:10;;;;;;;213.43;40.20;;;;;;;;;;5037112;28;20021;-55
2023/09/30 12:50:36;;;;;;;268.07;48.23;;;;;;;;;;5037543;28;20029;-55
2023/09/30 12:53:01;;;;;;;272.75;48.08;;;;;;;;;;5036835;28;20844;-55
2023/09/30 12:55:26;;;;;;;203.27;53.43;;;;;;;;;;5038255;28;20017;-58
2023/09/30 12:57:53;;;;;;;274.05;56.75;;;;;;;;;;5019720;28;20599;-55
2023/09/30 13:00:18;;;;;;;204.45;56.35;;;;;;;;;;5038213;28;20032;-56
2023/09/30 13:02:44;;;;;;;261.17;60.10;;;;;;;;;;5038802;28;20021;-57
2023/09/30 13:05:09;;;;;;;299.05;61.42;;;;;;;;;;5036297;28;20025;-54
2023/09/30 13:07:34;;;;;;;238.43;60.97;;;;;;;;;;5036644;28;20021;-55
2023/09/30 13:10:00;;;;;;;347.83;64.63;;;;;;;;;;5036172;28;20055;-55
2023/09/30 13:12:26;;;;;;;300.27;62.70;;;;;;;;;;5037686;28;20144;-56
2023/09/30 13:14:53;;;;;;;255.80;61.80;;;;;;;;;;5038136;28;20185;-54
2023/09/30 13:17:18;;;;;;;327.48;65.18;;;;;;;;;;5037507;28;20502;-56
2023/09/30 13:19:44;;;;;;;370.33;66.87;;;;;;;;;;5037358;28;20025;-55
2023/09/30 13:22:09;;;;;;;443.85;69.85;;;;;;;;;;5036981;28;20379;-56
2023/09/30 13:24:39;;;;;;;342.90;66.13;;;;;;;;;;5035036;28;20025;-55
2023/09/30 13:27:04;;;;;;;447.08;70.38;;;;;;;;;;5035510;28;20072;-56
2023/09/30 13:29:29;;;;;;;317.48;66.80;;;;;;;;;;5037705;28;20056;-57
2023/09/30 13:31:55;;;;;;;326.47;67.67;;;;;;;;;;5035620;28;20542;-55
2023/09/30 13:34:20;;;;;;;324.30;68.00;;;;;;;;;;5036133;28;20366;-55
2023/09/30 13:36:45;;;;;;;313.77;68.10;;;;;;;;;;5036758;28;20116;-56
2023/09/30 13:39:13;;;;;;;391.87;72.43;;;;;;;;;;5036547;28;20029;-55
2023/09/30 13:41:39;;;;;;;342.80;69.38;;;;;;;;;;5035736;28;20581;-56
2023/09/30 13:44:05;;;;;;;434.73;72.43;;;;;;;;;;5035099;28;20036;-56
2023/09/30 13:46:30;;;;;;;295.83;69.13;;;;;;;;;;5035029;28;20033;-55
2023/09/30 13:48:55;;;;;;;399.13;78.40;;;;;;;;;;5035558;28;20476;-56
2023/09/30 13:51:21;;;;;;;347.00;70.47;;;;;;;;;;5037103;28;20036;-55
2023/09/30 13:53:46;;;;;;;334.27;69.80;;;;;;;;;;5035962;28;20021;-57
2023/09/30 13:56:11;;;;;;;374.15;70.88;;;;;;;;;;5034659;28;20055;-56
2023/09/30 13:58:37;;;;;;;369.20;72.50;;;;;;;;;;5037292;28;20040;-57
2023/09/30 14:01:02;;;;;;;385.70;73.45;;;;;;;;;;5036029;28;20048;-56